This is the latest recevied weather packets stored in our database for station/object IZ3MEZ-13. If no packets are shown the sender has not sent any weather packets the latest 10 day(s).
| Time | Temp. | Humidity | Pressure | Rain* | Wind** | Luminosity | Snow |
|---|---|---|---|---|---|---|---|
| 1777764320 | 10.56° C | 70% | 1021.8 hPa | 0 mm | - | 0 W/m² | - |
| 1777761317 | 12.22° C | 65% | 1021.9 hPa | 0 mm | - | 0 W/m² | - |
| 1777760724 | 12.22° C | 64% | 1021.9 hPa | 0 mm | - | 0 W/m² | - |
| 1777760118 | 12.78° C | 63% | 1022 hPa | 0 mm | - | 0 W/m² | - |
| 1777759519 | 13.33° C | 61% | 1022 hPa | 0 mm | - | 0 W/m² | - |
| 1777758331 | 15° C | 59% | 1022 hPa | 0 mm | - | 0 W/m² | - |
| 1777757719 | 15° C | 60% | 1021.8 hPa | 0 mm | - | 0 W/m² | - |
| 1777757122 | 13.89° C | 64% | 1022 hPa | 0 mm | - | 0 W/m² | - |
| 1777756518 | 12.78° C | 65% | 1022 hPa | 0 mm | - | 0 W/m² | - |
| 1777755921 | 12.78° C | 64% | 1022 hPa | 0 mm | - | 0 W/m² | - |
| 1777754117 | 13.33° C | 62% | 1022.1 hPa | 0 mm | - | 0 W/m² | - |
| 1777753528 | 13.89° C | 62% | 1022.1 hPa | 0 mm | - | 0 W/m² | - |
| 1777752919 | 13.89° C | 60% | 1022.2 hPa | 0 mm | - | 0 W/m² | - |
| 1777752616 | 13.89° C | 60% | 1022.2 hPa | 0 mm | - | 0 W/m² | - |
| 1777752025 | 14.44° C | 58% | 1022.1 hPa | 0 mm | - | 0 W/m² | - |
| 1777751416 | 15° C | 57% | 1022.1 hPa | 0 mm | - | 0 W/m² | - |
| 1777750817 | 15° C | 56% | 1022.1 hPa | 0 mm | - | 0 W/m² | - |
| 1777750225 | 15.56° C | 54% | 1022 hPa | 0 mm | - | 0 W/m² | - |
| 1777749618 | 16.11° C | 53% | 1022 hPa | 0 mm | - | 0 W/m² | - |
| 1777749025 | 16.11° C | 52% | 1022 hPa | 0 mm | - | 0 W/m² | - |
| 1777748723 | 16.67° C | 51% | 1021.9 hPa | 0 mm | - | 0 W/m² | - |
| 1777747522 | 18.33° C | 47% | 1021.9 hPa | 0 mm | - | 0 W/m² | - |
| 1777746929 | 19.44° C | 44% | 1021.8 hPa | 0 mm | - | 0 W/m² | - |
| 1777746317 | 20° C | 42% | 1021.7 hPa | 0 mm | - | 0 W/m² | - |
| 1777745716 | 21.11° C | 40% | 1021.7 hPa | 0 mm | - | 2 W/m² | - |
* Rain latest hour (hover to see other rain measurements)
** Current wind speed in m/s (hover to see current wind gust speed)